Time,TemperatureF,DewpointF,PressureIn,WindDirection,WindDirectionDegrees,WindSpeedMPH,WindSpeedGustMPH,Humidity,HourlyPrecipIn,Conditions,Clouds,dailyrainin,SolarRadiationWatts/m^2,SoftwareType,DateUTC
2013-02-12 00:01:00,38.0,22.0,-100.00,NW,320,0.0,0.0,51,0.00,,,0.06,0.000000,,2013-02-12 05:01:00,
2013-02-12 00:11:00,38.0,22.0,-100.00,NW,320,0.0,0.0,51,0.00,,,0.06,0.000000,,2013-02-12 05:11:00,
2013-02-12 00:42:00,36.0,21.0,-100.00,WNW,300,0.0,0.0,54,0.00,,,0.06,0.000000,,2013-02-12 05:42:00,
2013-02-12 00:52:00,36.0,21.0,-100.00,WNW,300,0.0,0.0,54,0.00,,,0.06,0.000000,,2013-02-12 05:52:00,
2013-02-12 01:02:00,36.0,21.0,-100.00,WNW,300,0.0,0.0,54,0.00,,,0.06,0.000000,,2013-02-12 06:02:00,
2013-02-12 01:12:00,36.0,21.0,-100.00,WNW,300,0.0,0.0,54,0.00,,,0.06,0.000000,,2013-02-12 06:12:00,
2013-02-12 01:32:00,35.0,21.0,-100.00,WNW,301,0.0,0.0,56,0.00,,,0.06,0.000000,,2013-02-12 06:32:00,
2013-02-12 01:42:00,35.0,21.0,-100.00,WNW,301,0.0,0.0,56,0.00,,,0.06,0.000000,,2013-02-12 06:42:00,
2013-02-12 01:52:00,35.0,21.0,-100.00,WNW,301,0.0,0.0,56,0.00,,,0.06,0.000000,,2013-02-12 06:52:00,
2013-02-12 02:02:00,35.0,21.0,-100.00,WNW,301,0.0,0.0,56,0.00,,,0.06,0.000000,,2013-02-12 07:02:00,
2013-02-12 02:12:00,35.0,21.0,-100.00,WNW,301,0.0,0.0,56,0.00,,,0.06,0.000000,,2013-02-12 07:12:00,
2013-02-12 02:42:00,35.0,23.0,-100.00,NW,308,0.0,0.0,60,0.00,,,0.06,0.000000,,2013-02-12 07:42:00,
2013-02-12 02:52:00,35.0,23.0,-100.00,NW,308,0.0,0.0,60,0.00,,,0.06,0.000000,,2013-02-12 07:52:00,
2013-02-12 03:01:00,35.0,23.0,-100.00,NW,308,0.0,0.0,60,0.00,,,0.06,0.000000,,2013-02-12 08:01:00,
2013-02-12 03:11:00,35.0,23.0,-100.00,NW,308,0.0,0.0,60,0.00,,,0.06,0.000000,,2013-02-12 08:11:00,
2013-02-12 03:42:00,33.0,21.0,-100.00,WNW,302,0.0,0.0,60,0.00,,,0.06,0.000000,,2013-02-12 08:42:00,
2013-02-12 03:52:00,33.0,21.0,-100.00,WNW,302,0.0,0.0,60,0.00,,,0.06,0.000000,,2013-02-12 08:52:00,
2013-02-12 04:02:00,33.0,21.0,-100.00,WNW,302,0.0,0.0,60,0.00,,,0.06,0.000000,,2013-02-12 09:02:00,
2013-02-12 04:11:00,33.0,21.0,-100.00,WNW,302,0.0,0.0,60,0.00,,,0.06,0.000000,,2013-02-12 09:11:00,
2013-02-12 04:42:00,33.0,19.0,-100.00,WNW,296,0.0,0.0,57,0.00,,,0.01,0.000000,,2013-02-12 09:42:00,
2013-02-12 04:52:00,33.0,19.0,-100.00,WNW,296,0.0,0.0,57,0.00,,,0.01,0.000000,,2013-02-12 09:52:00,
2013-02-12 05:02:00,33.0,19.0,-100.00,WNW,296,0.0,0.0,57,0.00,,,0.01,0.000000,,2013-02-12 10:02:00,
2013-02-12 05:11:00,33.0,19.0,-100.00,WNW,296,0.0,0.0,57,0.00,,,0.01,0.000000,,2013-02-12 10:11:00,
2013-02-12 05:43:00,32.0,19.0,-100.00,NW,305,0.0,0.0,58,0.00,,,0.00,0.000000,,2013-02-12 10:43:00,
2013-02-12 05:52:00,32.0,19.0,-100.00,NW,305,0.0,0.0,58,0.00,,,0.00,0.000000,,2013-02-12 10:52:00,
2013-02-12 06:02:00,32.0,19.0,-100.00,NW,305,0.0,0.0,58,0.00,,,0.00,0.000000,,2013-02-12 11:02:00,
2013-02-12 06:11:00,32.0,19.0,-100.00,NW,305,0.0,0.0,58,0.00,,,0.00,0.000000,,2013-02-12 11:11:00,
2013-02-12 06:42:00,31.0,19.0,-100.00,WNW,301,0.0,0.0,60,0.00,,,0.00,0.000000,,2013-02-12 11:42:00,
2013-02-12 06:53:00,31.0,19.0,-100.00,WNW,301,0.0,0.0,60,0.00,,,0.00,0.000000,,2013-02-12 11:53:00,
2013-02-12 07:02:00,31.0,19.0,-100.00,WNW,301,0.0,0.0,60,0.00,,,0.00,0.000000,,2013-02-12 12:02:00,
2013-02-12 07:11:00,31.0,19.0,-100.00,WNW,301,0.0,0.0,60,0.00,,,0.00,0.000000,,2013-02-12 12:11:00,
2013-02-12 07:32:00,31.0,18.0,-100.00,WNW,301,0.0,0.0,59,0.00,,,0.00,0.000000,,2013-02-12 12:32:00,
2013-02-12 07:42:00,31.0,18.0,-100.00,WNW,301,0.0,0.0,59,0.00,,,0.00,0.000000,,2013-02-12 12:42:00,
2013-02-12 07:53:00,31.0,18.0,-100.00,WNW,301,0.0,0.0,59,0.00,,,0.00,0.000000,,2013-02-12 12:53:00,
2013-02-12 08:02:00,31.0,18.0,-100.00,WNW,301,0.0,0.0,59,0.00,,,0.00,0.000000,,2013-02-12 13:02:00,
2013-02-12 08:11:00,31.0,18.0,-100.00,WNW,301,0.0,0.0,59,0.00,,,0.00,0.000000,,2013-02-12 13:11:00,
2013-02-12 08:42:00,31.0,17.0,-100.00,NW,309,0.0,0.0,56,0.00,,,0.00,18.000000,,2013-02-12 13:42:00,
2013-02-12 08:52:00,31.0,17.0,-100.00,NW,309,0.0,0.0,56,0.00,,,0.00,18.000000,,2013-02-12 13:52:00,
2013-02-12 09:01:00,31.0,17.0,-100.00,NW,309,0.0,0.0,56,0.00,,,0.00,18.000000,,2013-02-12 14:01:00,
2013-02-12 09:12:00,31.0,17.0,-100.00,NW,309,0.0,0.0,56,0.00,,,0.00,18.000000,,2013-02-12 14:12:00,
2013-02-12 09:42:00,34.0,20.0,-100.00,NW,310,0.0,0.0,55,0.00,,,0.00,121.000000,,2013-02-12 14:42:00,
2013-02-12 09:52:00,34.0,20.0,-100.00,NW,310,0.0,0.0,55,0.00,,,0.00,121.000000,,2013-02-12 14:52:00,
2013-02-12 10:02:00,34.0,20.0,-100.00,NW,310,0.0,0.0,55,0.00,,,0.00,121.000000,,2013-02-12 15:02:00,
2013-02-12 10:11:00,34.0,20.0,-100.00,NW,310,0.0,0.0,55,0.00,,,0.00,121.000000,,2013-02-12 15:11:00,
2013-02-12 10:42:00,37.0,20.0,-100.00,NW,313,0.0,0.0,49,0.00,,,0.00,276.000000,,2013-02-12 15:42:00,
2013-02-12 10:52:00,37.0,20.0,-100.00,NW,313,0.0,0.0,49,0.00,,,0.00,276.000000,,2013-02-12 15:52:00,
2013-02-12 11:02:00,37.0,20.0,-100.00,NW,313,0.0,0.0,49,0.00,,,0.00,276.000000,,2013-02-12 16:02:00,
2013-02-12 11:11:00,37.0,20.0,-100.00,NW,313,0.0,0.0,49,0.00,,,0.00,276.000000,,2013-02-12 16:11:00,
2013-02-12 11:32:00,40.0,20.0,-100.00,NW,318,0.0,0.0,45,0.00,,,0.00,466.000000,,2013-02-12 16:32:00,
2013-02-12 11:42:00,40.0,20.0,-100.00,NW,318,0.0,0.0,45,0.00,,,0.00,466.000000,,2013-02-12 16:42:00,
2013-02-12 11:52:00,40.0,20.0,-100.00,NW,318,0.0,0.0,45,0.00,,,0.00,466.000000,,2013-02-12 16:52:00,
2013-02-12 12:01:00,40.0,20.0,-100.00,NW,318,0.0,0.0,45,0.00,,,0.00,466.000000,,2013-02-12 17:01:00,
2013-02-12 12:12:00,40.0,20.0,-100.00,NW,318,0.0,0.0,45,0.00,,,0.00,466.000000,,2013-02-12 17:12:00,
2013-02-12 12:42:00,41.0,21.0,-100.00,NW,321,0.0,0.0,44,0.00,,,0.00,540.000000,,2013-02-12 17:42:00,
2013-02-12 12:52:00,41.0,21.0,-100.00,NW,321,0.0,0.0,44,0.00,,,0.00,540.000000,,2013-02-12 17:52:00,
2013-02-12 13:02:00,41.0,21.0,-100.00,NW,321,0.0,0.0,44,0.00,,,0.00,540.000000,,2013-02-12 18:02:00,
2013-02-12 13:12:00,41.0,21.0,-100.00,NW,321,0.0,0.0,44,0.00,,,0.00,540.000000,,2013-02-12 18:12:00,
2013-02-12 13:42:00,44.0,19.0,-100.00,NW,319,0.0,0.0,37,0.00,,,0.00,562.000000,,2013-02-12 18:42:00,
2013-02-12 13:52:00,44.0,19.0,-100.00,NW,319,0.0,0.0,37,0.00,,,0.00,562.000000,,2013-02-12 18:52:00,
2013-02-12 14:02:00,44.0,19.0,-100.00,NW,319,0.0,0.0,37,0.00,,,0.00,562.000000,,2013-02-12 19:02:00,
2013-02-12 14:11:00,44.0,19.0,-100.00,NW,319,0.0,0.0,37,0.00,,,0.00,562.000000,,2013-02-12 19:11:00,
2013-02-12 14:42:00,47.0,18.0,-100.00,NW,326,0.0,0.0,31,0.00,,,-99.99,528.000000,,2013-02-12 19:42:00,
2013-02-12 14:52:00,47.0,18.0,-100.00,NW,326,0.0,0.0,31,0.00,,,-99.99,528.000000,,2013-02-12 19:52:00,
2013-02-12 15:01:00,47.0,18.0,-100.00,NW,326,0.0,0.0,31,0.00,,,-99.99,528.000000,,2013-02-12 20:01:00,
2013-02-12 15:11:00,47.0,18.0,-100.00,NW,326,0.0,0.0,31,0.00,,,-99.99,528.000000,,2013-02-12 20:11:00,
2013-02-12 15:42:00,47.0,16.0,-100.00,NW,307,0.0,0.0,29,0.00,,,0.00,440.000000,,2013-02-12 20:42:00,
2013-02-12 15:52:00,47.0,16.0,-100.00,NW,307,0.0,0.0,29,0.00,,,0.00,440.000000,,2013-02-12 20:52:00,
2013-02-12 16:02:00,47.0,16.0,-100.00,NW,307,0.0,0.0,29,0.00,,,0.00,440.000000,,2013-02-12 21:02:00,
2013-02-12 16:11:00,47.0,16.0,-100.00,NW,307,0.0,0.0,29,0.00,,,0.00,440.000000,,2013-02-12 21:11:00,
2013-02-12 16:42:00,46.0,16.0,-100.00,NW,305,0.0,0.0,29,0.00,,,0.00,181.000000,,2013-02-12 21:42:00,
2013-02-12 16:52:00,46.0,16.0,-100.00,NW,305,0.0,0.0,29,0.00,,,0.00,181.000000,,2013-02-12 21:52:00,
2013-02-12 17:02:00,46.0,16.0,-100.00,NW,305,0.0,0.0,29,0.00,,,0.00,181.000000,,2013-02-12 22:02:00,
2013-02-12 17:12:00,46.0,16.0,-100.00,NW,305,0.0,0.0,29,0.00,,,0.00,181.000000,,2013-02-12 22:12:00,
2013-02-12 17:42:00,41.0,15.0,-100.00,NW,310,0.0,0.0,34,0.00,,,0.00,90.000000,,2013-02-12 22:42:00,
2013-02-12 17:52:00,41.0,15.0,-100.00,NW,310,0.0,0.0,34,0.00,,,0.00,90.000000,,2013-02-12 22:52:00,
2013-02-12 18:02:00,41.0,15.0,-100.00,NW,310,0.0,0.0,34,0.00,,,0.00,90.000000,,2013-02-12 23:02:00,
2013-02-12 18:11:00,41.0,15.0,-100.00,NW,310,0.0,0.0,34,0.00,,,0.00,90.000000,,2013-02-12 23:11:00,
2013-02-12 18:42:00,37.0,14.0,-100.00,NW,318,0.0,0.0,38,0.00,,,0.00,9.000000,,2013-02-12 23:42:00,
2013-02-12 18:52:00,37.0,14.0,-100.00,NW,318,0.0,0.0,38,0.00,,,0.00,9.000000,,2013-02-12 23:52:00,
2013-02-12 19:02:00,37.0,14.0,-100.00,NW,318,0.0,0.0,38,0.00,,,0.00,9.000000,,2013-02-13 00:02:00,
2013-02-12 19:11:00,37.0,14.0,-100.00,NW,318,0.0,0.0,38,0.00,,,0.00,9.000000,,2013-02-13 00:11:00,
2013-02-12 19:42:00,36.0,15.0,-100.00,NW,319,0.0,0.0,42,0.00,,,0.00,0.000000,,2013-02-13 00:42:00,
2013-02-12 19:52:00,36.0,15.0,-100.00,NW,319,0.0,0.0,42,0.00,,,0.00,0.000000,,2013-02-13 00:52:00,
2013-02-12 20:01:00,36.0,15.0,-100.00,NW,319,0.0,0.0,42,0.00,,,0.00,0.000000,,2013-02-13 01:01:00,
2013-02-12 20:11:00,36.0,15.0,-100.00,NW,319,0.0,0.0,42,0.00,,,0.00,0.000000,,2013-02-13 01:11:00,
2013-02-12 21:42:00,35.0,16.0,-100.00,NW,311,0.0,0.0,45,-99.99,,,0.00,0.000000,,2013-02-13 02:42:00,
2013-02-12 21:52:00,35.0,16.0,-100.00,NW,311,0.0,0.0,45,-99.99,,,0.00,0.000000,,2013-02-13 02:52:00,
2013-02-12 22:02:00,35.0,16.0,-100.00,NW,311,0.0,0.0,45,-99.99,,,0.00,0.000000,,2013-02-13 03:02:00,
2013-02-12 22:12:00,35.0,16.0,-100.00,NW,311,0.0,0.0,45,-99.99,,,0.00,0.000000,,2013-02-13 03:12:00,
2013-02-12 22:42:00,35.0,16.0,-100.00,West,263,0.0,0.0,45,0.00,,,0.00,0.000000,,2013-02-13 03:42:00,
2013-02-12 22:52:00,35.0,16.0,-100.00,West,263,0.0,0.0,45,0.00,,,0.00,0.000000,,2013-02-13 03:52:00,
2013-02-12 23:01:00,35.0,16.0,-100.00,West,263,0.0,0.0,45,0.00,,,0.00,0.000000,,2013-02-13 04:01:00,
2013-02-12 23:11:00,35.0,16.0,-100.00,West,263,0.0,0.0,45,0.00,,,0.00,0.000000,,2013-02-13 04:11:00,
2013-02-12 23:42:00,34.0,15.0,-100.00,WNW,282,0.0,0.0,45,0.00,,,0.00,0.000000,,2013-02-13 04:42:00,
2013-02-12 23:52:00,34.0,15.0,-100.00,WNW,282,0.0,0.0,45,0.00,,,0.00,0.000000,,2013-02-13 04:52:00,